Aeroporto :
LOGIN :

Iscrizione | Disclaimer

   EN    FR    IT 

 










Sommario :    VFR   VFR Marginale   IFR   IFR Intensivo   IFR Molto Intensivo
Visibilità : 
Base nubi : 
>= 8 km
>= 3000ft
5 / 8 km
1000 / 3000 ft
1500m / 5 km
500 / 1000 ft
800 / 1500m
200 / 500 ft
< 800m
< 200 ft
Simboli :   Temporali  Nebbia  Neve Forte  Precipitazioni Forti  Vento > 20 kt
SIGMETs :   Varie  Temporali  Ghiacco  Turbolenza  Onda orograficha  Ceneri Vulcaniche






- Altitudine del aeroporto : 287 ft


LFRL - Lanveoc Poulmic

ULTIMO METAR :
  • 291430Z AUTO 07006KT 040V100 CAVOK 26/08 Q1020 NOSIG

METARs OBSOLETI :
  • 291400Z AUTO 07007KT 030V110 CAVOK 26/09 Q1020 NOSIG
  • 291330Z AUTO 07007KT 030V090 CAVOK 26/09 Q1021 NOSIG
  • 291300Z AUTO 06007KT 010V080 CAVOK 26/08 Q1021 NOSIG
  • 291230Z AUTO 07008KT 030V100 CAVOK 26/10 Q1021 NOSIG
  • 291200Z AUTO 08008KT 040V100 CAVOK 25/08 Q1021 NOSIG

TAF TAF LFRL
Valido dal 29 a 12 ore il 30 a 12 ore UTC


291100Z 2912/3012 09010KT CAVOK
TEMPO 2918/2921 27005KT



MetMap, La meteo Aeronautica in un colpo d'occhio ! - Copyright ORBIFLY Dicembre 2007 - Disclaimer

ORBIFLY MET'MAP TEAM :

Programmazione e sviluppo : Alexandra Zaïnal
Concezione : Baudouin d'Aumeries
Aiuto per la programmazione : Marc-Olivier Méhu
Supporto tecnico e logistico : Manuel Goepfert
Aiuto per la traduzione : Arnaldo La Scala

Contatto : metmap@orbifly.com




FONTI E CREDITI :

   NOAA